createdAt,value
2023-04-14T00:00:11.623Z,1.21
2023-04-14T00:01:11.672Z,1.06
2023-04-14T00:02:11.845Z,1.22
2023-04-14T00:03:11.975Z,0.94
2023-04-14T00:04:11.992Z,0.95
2023-04-14T00:05:11.948Z,0.88
2023-04-14T00:06:11.896Z,0.95
2023-04-14T00:07:11.910Z,1.31
2023-04-14T00:08:11.997Z,1.02
2023-04-14T00:09:12.037Z,0.87
2023-04-14T00:10:12.099Z,0.88
2023-04-14T00:11:12.109Z,1.37
2023-04-14T00:12:12.137Z,1.22
2023-04-14T00:13:12.128Z,0.87
2023-04-14T00:14:12.195Z,1.13
2023-04-14T00:15:12.244Z,1.02
2023-04-14T00:16:12.231Z,1.04
2023-04-14T00:17:12.328Z,1.21
2023-04-14T00:18:12.261Z,0.86
2023-04-14T00:19:12.281Z,1.02
2023-04-14T00:20:12.361Z,1.01
2023-04-14T00:21:12.359Z,0.90
2023-04-14T00:22:12.370Z,1.47
2023-04-14T00:23:12.358Z,0.98
2023-04-14T00:24:12.401Z,1.20
2023-04-14T00:25:12.409Z,0.83
2023-04-14T00:26:12.409Z,1.23
2023-04-14T00:27:12.448Z,1.02
2023-04-14T00:28:12.471Z,1.25
2023-04-14T00:29:12.565Z,1.15
2023-04-14T00:30:12.624Z,0.98
2023-04-14T00:31:12.804Z,0.88
2023-04-14T00:32:12.727Z,1.01
2023-04-14T00:33:12.751Z,1.01
2023-04-14T00:34:12.741Z,1.29
2023-04-14T00:35:12.789Z,1.05
2023-04-14T00:36:12.763Z,0.99
2023-04-14T00:37:12.780Z,0.77
2023-04-14T00:38:12.812Z,1.10
2023-04-14T00:39:12.882Z,1.10
2023-04-14T00:40:12.995Z,1.17
2023-04-14T00:41:13.089Z,1.07
2023-04-14T00:42:13.098Z,1.20
2023-04-14T00:43:13.089Z,1.44
2023-04-14T00:44:13.116Z,1.02
2023-04-14T00:45:13.105Z,1.23
2023-04-14T00:46:13.104Z,0.90
2023-04-14T00:47:13.117Z,1.05
2023-04-14T00:48:13.213Z,0.92
2023-04-14T00:49:13.200Z,0.99
2023-04-14T00:50:13.177Z,0.94
2023-04-14T00:51:13.197Z,0.84
2023-04-14T00:52:13.160Z,0.99
2023-04-14T00:53:13.166Z,1.06
2023-04-14T00:54:13.230Z,1.17
2023-04-14T00:55:13.210Z,0.98
2023-04-14T00:56:13.255Z,0.97
2023-04-14T00:57:13.218Z,1.05
2023-04-14T00:58:13.222Z,1.02
2023-04-14T00:59:13.221Z,1.07
2023-04-14T01:00:13.240Z,1.38
2023-04-14T01:01:13.351Z,1.10
2023-04-14T01:02:13.549Z,0.91
2023-04-14T01:03:13.750Z,0.86
2023-04-14T01:04:13.615Z,1.06
2023-04-14T01:05:13.887Z,0.82
2023-04-14T01:06:13.683Z,1.27
2023-04-14T01:07:13.641Z,1.02
2023-04-14T01:08:13.663Z,0.88
2023-04-14T01:09:13.674Z,1.19
2023-04-14T01:10:13.683Z,1.31
2023-04-14T01:11:13.719Z,1.02
2023-04-14T01:12:13.808Z,1.00
2023-04-14T01:13:13.788Z,0.96
2023-04-14T01:14:13.831Z,1.23
2023-04-14T01:15:13.817Z,1.07
2023-04-14T01:16:13.844Z,0.87
2023-04-14T01:17:13.827Z,1.18
2023-04-14T01:18:13.823Z,1.40
2023-04-14T01:19:13.915Z,1.17
2023-04-14T01:20:14.011Z,0.86
2023-04-14T01:21:14.090Z,0.87
2023-04-14T01:22:14.971Z,0.96
2023-04-14T01:23:14.172Z,0.88
2023-04-14T01:24:14.186Z,1.15
2023-04-14T01:25:14.198Z,1.11
2023-04-14T01:26:14.946Z,0.98
2023-04-14T01:27:14.226Z,0.99
2023-04-14T01:28:14.249Z,1.11
2023-04-14T01:29:14.221Z,0.97
2023-04-14T01:30:14.252Z,0.99
2023-04-14T01:31:14.287Z,1.16
2023-04-14T01:32:14.306Z,1.18
2023-04-14T01:33:14.302Z,1.03
2023-04-14T01:34:14.400Z,0.99
2023-04-14T01:35:14.476Z,1.02
2023-04-14T01:36:14.551Z,1.19
2023-04-14T01:37:14.636Z,1.06
2023-04-14T01:38:14.712Z,1.32
2023-04-14T01:39:14.815Z,1.01
2023-04-14T01:40:14.899Z,1.02
2023-04-14T01:41:14.969Z,0.99
2023-04-14T01:42:15.075Z,1.45
2023-04-14T01:43:15.152Z,1.06
2023-04-14T01:44:15.113Z,1.03
2023-04-14T01:45:15.153Z,0.96
2023-04-14T01:46:15.224Z,0.54
2023-04-14T01:47:15.923Z,0.99
2023-04-14T01:48:15.152Z,1.30
2023-04-14T01:49:15.269Z,1.22
2023-04-14T01:50:15.155Z,1.23
2023-04-14T01:51:15.144Z,0.93
2023-04-14T01:52:15.148Z,1.11
2023-04-14T01:53:15.222Z,0.95
2023-04-14T01:54:15.295Z,0.98
2023-04-14T01:55:15.303Z,1.20
2023-04-14T01:56:15.941Z,0.90
2023-04-14T01:57:15.274Z,1.09
2023-04-14T01:58:15.278Z,1.12
2023-04-14T01:59:15.295Z,1.06
2023-04-14T02:00:15.260Z,0.88
2023-04-14T02:01:15.299Z,0.87
2023-04-14T02:02:15.340Z,0.82
2023-04-14T02:03:15.475Z,0.99
2023-04-14T02:04:15.544Z,1.03
2023-04-14T02:05:15.577Z,1.08
2023-04-14T02:06:15.663Z,1.18
2023-04-14T02:07:15.654Z,1.06
2023-04-14T02:08:15.651Z,1.18
2023-04-14T02:09:15.652Z,1.15
2023-04-14T02:10:15.683Z,1.25
2023-04-14T02:11:15.661Z,0.99
2023-04-14T02:12:15.648Z,1.14
2023-04-14T02:13:15.760Z,0.94
2023-04-14T02:14:15.764Z,0.96
2023-04-14T02:15:15.767Z,0.81
2023-04-14T02:16:15.759Z,1.09
2023-04-14T02:17:15.764Z,1.03
2023-04-14T02:18:15.729Z,1.33
2023-04-14T02:19:15.803Z,1.32
2023-04-14T02:20:15.910Z,1.19
2023-04-14T02:21:15.989Z,1.05
2023-04-14T02:22:15.972Z,0.87
2023-04-14T02:23:16.001Z,0.80
2023-04-14T02:24:15.949Z,0.98
2023-04-14T02:25:15.971Z,0.64
2023-04-14T02:26:15.969Z,1.05
2023-04-14T02:27:16.945Z,1.02
2023-04-14T02:28:16.004Z,0.96
2023-04-14T02:29:16.003Z,1.07
2023-04-14T02:30:16.045Z,0.77
2023-04-14T02:31:16.026Z,0.81
2023-04-14T02:32:15.985Z,1.22
2023-04-14T02:33:15.998Z,0.77
2023-04-14T02:34:16.009Z,0.77
2023-04-14T02:35:15.984Z,0.87
2023-04-14T02:36:15.975Z,0.90
2023-04-14T02:37:15.981Z,0.81
2023-04-14T02:38:16.007Z,0.72
2023-04-14T02:39:15.994Z,0.81
2023-04-14T02:40:16.038Z,0.98
2023-04-14T02:41:16.012Z,0.98
2023-04-14T02:42:16.069Z,0.73
2023-04-14T02:43:15.999Z,1.28
2023-04-14T02:44:16.008Z,0.87
2023-04-14T02:45:16.102Z,1.02
2023-04-14T02:46:16.132Z,0.89
2023-04-14T02:47:16.128Z,0.71
2023-04-14T02:48:16.114Z,0.88
2023-04-14T02:49:16.143Z,0.89
2023-04-14T02:50:16.138Z,0.73
2023-04-14T02:51:16.115Z,0.93
2023-04-14T02:52:16.188Z,1.01
2023-04-14T02:53:16.297Z,0.91
2023-04-14T02:54:16.404Z,0.74
2023-04-14T02:55:16.481Z,0.79
2023-04-14T02:56:16.577Z,0.83
2023-04-14T02:57:16.597Z,0.75
2023-04-14T02:58:16.592Z,0.90
2023-04-14T02:59:16.596Z,1.13
2023-04-14T03:00:16.554Z,0.94
2023-04-14T03:01:16.608Z,0.85
2023-04-14T03:02:16.685Z,0.96
2023-04-14T03:03:16.700Z,0.76
2023-04-14T03:04:16.633Z,0.87
2023-04-14T03:05:16.609Z,0.72
2023-04-14T03:06:16.670Z,0.94
2023-04-14T03:07:16.753Z,0.69
2023-04-14T03:08:16.858Z,0.56
2023-04-14T03:09:16.956Z,0.80
2023-04-14T03:10:17.029Z,1.20
2023-04-14T03:11:17.112Z,0.98
2023-04-14T03:12:17.204Z,1.02
2023-04-14T03:13:17.306Z,0.78
2023-04-14T03:14:17.375Z,0.94
2023-04-14T03:15:17.497Z,1.00
2023-04-14T03:16:17.642Z,0.99
2023-04-14T03:17:17.717Z,0.87
2023-04-14T03:18:17.734Z,0.97
2023-04-14T03:19:17.718Z,1.25
2023-04-14T03:20:17.766Z,0.98
2023-04-14T03:21:17.737Z,0.94
2023-04-14T03:22:17.747Z,1.05
2023-04-14T03:23:17.737Z,1.09
2023-04-14T03:24:17.784Z,1.12
2023-04-14T03:25:17.788Z,1.07
2023-04-14T03:26:17.793Z,0.67
2023-04-14T03:27:17.793Z,0.94
2023-04-14T03:28:17.821Z,0.98
2023-04-14T03:29:17.799Z,1.10
2023-04-14T03:30:17.873Z,0.75
2023-04-14T03:31:18.033Z,0.79
2023-04-14T03:32:17.989Z,1.12
2023-04-14T03:33:18.013Z,0.95
2023-04-14T03:34:17.969Z,1.02
2023-04-14T03:35:17.984Z,0.92
2023-04-14T03:36:17.980Z,0.80
2023-04-14T03:37:18.096Z,0.95
2023-04-14T03:38:18.056Z,1.02
2023-04-14T03:39:18.049Z,0.81
2023-04-14T03:40:18.073Z,1.04
2023-04-14T03:41:18.092Z,0.94
2023-04-14T03:42:18.081Z,0.83
2023-04-14T03:43:18.117Z,0.96
2023-04-14T03:44:18.224Z,0.75
2023-04-14T03:45:18.311Z,1.01
2023-04-14T03:46:18.380Z,0.65
2023-04-14T03:47:18.402Z,0.76
2023-04-14T03:48:18.321Z,0.95
2023-04-14T03:49:18.340Z,0.76
2023-04-14T03:50:18.371Z,0.91
2023-04-14T03:51:18.355Z,0.88
2023-04-14T03:52:18.357Z,0.79
2023-04-14T03:53:18.400Z,1.03
2023-04-14T03:54:18.524Z,0.79
2023-04-14T03:55:18.615Z,0.77
2023-04-14T03:56:18.618Z,0.88
2023-04-14T03:57:18.639Z,0.82
2023-04-14T03:58:18.577Z,0.95
2023-04-14T03:59:18.621Z,0.76
2023-04-14T04:00:18.600Z,0.95
2023-04-14T04:01:18.713Z,0.95
2023-04-14T04:02:18.823Z,0.90
2023-04-14T04:03:18.908Z,0.87
2023-04-14T04:04:18.948Z,0.81
2023-04-14T04:05:18.847Z,1.15
2023-04-14T04:06:18.992Z,0.92
2023-04-14T04:07:19.008Z,0.80
2023-04-14T04:08:18.999Z,0.91
2023-04-14T04:09:19.010Z,0.95
2023-04-14T04:10:18.987Z,0.84
2023-04-14T04:11:19.081Z,0.88
2023-04-14T04:12:18.990Z,0.95
2023-04-14T04:13:18.996Z,0.95
2023-04-14T04:14:19.016Z,0.79
2023-04-14T04:15:19.026Z,1.05
2023-04-14T04:16:19.053Z,0.77
2023-04-14T04:17:19.119Z,0.94
2023-04-14T04:18:19.090Z,0.75
2023-04-14T04:19:19.216Z,0.72
2023-04-14T04:20:19.225Z,0.83
2023-04-14T04:21:19.256Z,0.82
2023-04-14T04:22:19.226Z,0.86
2023-04-14T04:23:19.221Z,0.82
2023-04-14T04:24:19.249Z,0.90
2023-04-14T04:25:19.346Z,0.61
2023-04-14T04:26:19.401Z,0.85
2023-04-14T04:27:27.638Z,1.03
2023-04-14T04:28:20.347Z,0.67
2023-04-14T04:29:19.322Z,0.85
2023-04-14T04:30:19.325Z,0.73
2023-04-14T04:31:19.312Z,0.82
2023-04-14T04:32:19.379Z,0.79
2023-04-14T04:33:19.315Z,0.77
2023-04-14T04:34:20.207Z,0.80
2023-04-14T04:35:19.288Z,1.00
2023-04-14T04:36:19.276Z,0.84
2023-04-14T04:37:19.267Z,0.68
2023-04-14T04:38:19.258Z,0.99
2023-04-14T04:39:19.264Z,0.86
2023-04-14T04:40:19.281Z,0.79
2023-04-14T04:41:19.241Z,0.67
2023-04-14T04:42:19.247Z,0.68
2023-04-14T04:43:19.243Z,0.94
2023-04-14T04:44:19.268Z,0.66
2023-04-14T04:45:19.275Z,0.82
2023-04-14T04:46:19.287Z,0.75
2023-04-14T04:47:19.275Z,0.74
2023-04-14T04:48:19.249Z,0.87
2023-04-14T04:49:19.329Z,0.77
2023-04-14T04:50:19.449Z,0.72
2023-04-14T04:51:19.535Z,0.85
2023-04-14T04:52:19.619Z,0.98
2023-04-14T04:53:19.616Z,0.83
2023-04-14T04:54:19.616Z,0.49
2023-04-14T04:55:19.631Z,0.80
2023-04-14T04:56:19.632Z,1.04
2023-04-14T04:57:19.592Z,0.88
2023-04-14T04:58:19.714Z,0.56
2023-04-14T04:59:19.713Z,0.93
2023-04-14T05:00:19.723Z,0.83
2023-04-14T05:01:19.757Z,0.75
2023-04-14T05:02:19.850Z,0.63
2023-04-14T05:03:19.764Z,0.61
2023-04-14T05:04:19.818Z,0.82
2023-04-14T05:05:19.790Z,0.66
2023-04-14T05:06:19.759Z,0.83
2023-04-14T05:07:19.789Z,0.60
2023-04-14T05:08:19.795Z,0.59
2023-04-14T05:09:19.769Z,0.61
2023-04-14T05:10:19.840Z,0.90
2023-04-14T05:11:19.893Z,0.95
2023-04-14T05:12:19.854Z,0.51
2023-04-14T05:13:19.847Z,0.82
2023-04-14T05:14:19.858Z,0.80
2023-04-14T05:15:19.867Z,0.55
2023-04-14T05:16:19.932Z,0.82
2023-04-14T05:17:19.917Z,0.58
2023-04-14T05:18:20.022Z,0.69
2023-04-14T05:19:19.845Z,0.46
2023-04-14T05:20:19.866Z,0.64
2023-04-14T05:21:19.859Z,0.89
2023-04-14T05:22:19.889Z,0.46
2023-04-14T05:23:19.876Z,0.39
2023-04-14T05:24:19.897Z,0.62
2023-04-14T05:25:19.906Z,0.80
2023-04-14T05:26:44.529Z,0.79
2023-04-14T05:27:20.869Z,0.50
2023-04-14T05:28:19.881Z,0.69
2023-04-14T05:29:19.851Z,0.71
2023-04-14T05:30:19.847Z,0.63
2023-04-14T05:31:19.897Z,0.68
2023-04-14T05:32:19.857Z,0.76
2023-04-14T05:33:19.826Z,0.59
2023-04-14T05:34:19.847Z,0.51
2023-04-14T05:35:19.816Z,0.61
2023-04-14T05:36:19.865Z,0.69
2023-04-14T05:37:19.800Z,0.60
2023-04-14T05:38:19.811Z,0.95
2023-04-14T05:39:19.897Z,0.72
2023-04-14T05:40:19.989Z,0.62
2023-04-14T05:41:20.053Z,0.76
2023-04-14T05:42:20.169Z,1.30
2023-04-14T05:43:20.186Z,0.69
2023-04-14T05:44:20.270Z,0.76
2023-04-14T05:45:20.371Z,0.85
2023-04-14T05:46:20.427Z,1.06
2023-04-14T05:47:20.516Z,0.82
2023-04-14T05:48:20.503Z,0.74
2023-04-14T05:49:20.553Z,0.77
2023-04-14T05:50:20.680Z,0.85
2023-04-14T05:51:21.098Z,0.61
2023-04-14T05:52:20.754Z,0.84
2023-04-14T05:53:20.797Z,0.80
2023-04-14T05:54:20.862Z,0.66
2023-04-14T05:55:20.917Z,0.83
2023-04-14T05:56:21.067Z,0.93
2023-04-14T05:57:21.045Z,1.34
2023-04-14T05:58:21.091Z,1.44
2023-04-14T05:59:21.189Z,1.42
2023-04-14T06:00:21.207Z,1.14
2023-04-14T06:01:21.332Z,1.24
2023-04-14T06:02:21.429Z,1.34
2023-04-14T06:03:21.622Z,1.75
2023-04-14T06:04:21.567Z,1.52
2023-04-14T06:05:21.536Z,1.42
2023-04-14T06:06:21.563Z,1.41
2023-04-14T06:07:21.653Z,1.47
2023-04-14T06:08:21.649Z,1.39
2023-04-14T06:09:21.713Z,2.47
2023-04-14T06:10:21.753Z,1.88
2023-04-14T06:11:21.838Z,1.50
2023-04-14T06:12:21.888Z,1.52
2023-04-14T06:13:21.905Z,2.68
2023-04-14T06:14:21.949Z,1.38
2023-04-14T06:15:21.996Z,1.80
2023-04-14T06:16:22.063Z,1.52
2023-04-14T06:17:22.109Z,1.25
2023-04-14T06:18:22.155Z,1.82
2023-04-14T06:19:22.153Z,1.38
2023-04-14T06:20:22.226Z,1.34
2023-04-14T06:21:22.279Z,1.54
2023-04-14T06:22:22.365Z,1.28
2023-04-14T06:23:22.336Z,1.58
2023-04-14T06:24:22.355Z,3.14
2023-04-14T06:25:22.402Z,1.66
2023-04-14T06:26:22.468Z,1.33
2023-04-14T06:27:22.560Z,1.60
2023-04-14T06:28:22.566Z,1.33
2023-04-14T06:29:22.515Z,2.06
2023-04-14T06:30:22.603Z,1.44
2023-04-14T06:31:22.694Z,1.21
2023-04-14T06:32:22.875Z,1.20
2023-04-14T06:33:22.699Z,1.57
2023-04-14T06:34:22.703Z,1.61
2023-04-14T06:35:32.403Z,1.41
2023-04-14T06:36:23.765Z,1.28
2023-04-14T06:37:22.775Z,1.77
2023-04-14T06:38:22.723Z,1.44
2023-04-14T06:39:22.735Z,1.16
2023-04-14T06:40:22.718Z,0.93
2023-04-14T06:41:22.745Z,1.57
2023-04-14T06:42:24.681Z,1.50
2023-04-14T06:43:22.960Z,1.45
2023-04-14T06:44:22.663Z,1.41
2023-04-14T06:45:22.698Z,1.49
2023-04-14T06:46:23.109Z,1.86
2023-04-14T06:47:22.754Z,1.34
2023-04-14T06:48:22.763Z,1.91
2023-04-14T06:49:22.805Z,2.13
2023-04-14T06:50:22.864Z,1.63
2023-04-14T06:51:23.053Z,1.70
2023-04-14T06:52:22.936Z,2.26
2023-04-14T06:53:22.971Z,3.64
2023-04-14T06:54:22.986Z,6.07
2023-04-14T06:55:23.037Z,4.84
2023-04-14T06:56:23.104Z,4.59
2023-04-14T06:57:23.155Z,3.66
2023-04-14T06:58:23.223Z,3.22
2023-04-14T06:59:23.277Z,2.54
2023-04-14T07:00:23.329Z,3.46
2023-04-14T07:01:23.413Z,2.47
2023-04-14T07:02:23.520Z,2.49
2023-04-14T07:03:23.550Z,2.20
2023-04-14T07:04:23.531Z,1.93
2023-04-14T07:05:23.556Z,2.34
2023-04-14T07:06:23.586Z,3.12
2023-04-14T07:07:23.639Z,2.18
2023-04-14T07:08:23.685Z,2.52
2023-04-14T07:09:23.728Z,2.03
2023-04-14T07:10:23.730Z,2.60
2023-04-14T07:11:23.758Z,1.92
2023-04-14T07:12:23.826Z,2.21
2023-04-14T07:13:23.816Z,2.69
2023-04-14T07:14:23.885Z,2.29
2023-04-14T07:15:23.896Z,2.18
2023-04-14T07:16:24.006Z,2.10
2023-04-14T07:17:23.999Z,2.20
2023-04-14T07:18:23.976Z,2.83
2023-04-14T07:19:24.022Z,2.03
2023-04-14T07:20:24.044Z,2.28
2023-04-14T07:21:24.088Z,2.02
2023-04-14T07:22:24.068Z,2.00
2023-04-14T07:23:24.118Z,2.15
2023-04-14T07:24:24.146Z,2.01
2023-04-14T07:25:24.204Z,1.94
2023-04-14T07:26:24.190Z,1.84
2023-04-14T07:27:24.222Z,2.92
2023-04-14T07:28:24.221Z,2.02
2023-04-14T07:29:24.259Z,2.36
2023-04-14T07:30:24.256Z,2.43
2023-04-14T07:31:24.390Z,2.07
2023-04-14T07:32:24.362Z,2.08
2023-04-14T07:33:24.327Z,2.53
2023-04-14T07:34:24.324Z,2.44
2023-04-14T07:35:24.348Z,1.95
2023-04-14T07:36:24.369Z,2.19
2023-04-14T07:37:24.411Z,2.17
2023-04-14T07:38:24.381Z,2.37
2023-04-14T07:39:24.423Z,2.25
2023-04-14T07:40:24.473Z,2.37
2023-04-14T07:41:24.585Z,2.35
2023-04-14T07:42:26.135Z,3.03
2023-04-14T07:43:24.472Z,2.75
2023-04-14T07:44:24.499Z,3.05
2023-04-14T07:45:24.454Z,3.32
2023-04-14T07:46:24.515Z,2.13
2023-04-14T07:47:24.545Z,3.75
2023-04-14T07:48:24.529Z,3.01
2023-04-14T07:49:24.500Z,3.17
2023-04-14T07:50:24.536Z,3.24
2023-04-14T07:51:24.587Z,3.29
2023-04-14T07:52:24.580Z,3.22
2023-04-14T07:53:24.563Z,3.55
2023-04-14T07:54:24.612Z,4.26
2023-04-14T07:55:25.538Z,5.02
2023-04-14T07:56:24.631Z,5.00
2023-04-14T07:57:24.623Z,4.83
2023-04-14T07:58:26.690Z,5.18
2023-04-14T07:59:24.592Z,5.41
2023-04-14T08:00:24.611Z,4.86
2023-04-14T08:01:24.569Z,4.88
2023-04-14T08:02:24.711Z,5.41
2023-04-14T08:03:24.752Z,4.63
2023-04-14T08:04:24.617Z,4.15
2023-04-14T08:05:24.622Z,3.90
2023-04-14T08:06:24.556Z,3.88
2023-04-14T08:07:24.545Z,4.19
2023-04-14T08:08:24.529Z,3.95
2023-04-14T08:09:24.535Z,3.70
2023-04-14T08:10:24.522Z,3.34
2023-04-14T08:11:24.550Z,3.75
2023-04-14T08:12:24.498Z,3.76
2023-04-14T08:13:24.522Z,3.29
2023-04-14T08:14:24.503Z,3.45
2023-04-14T08:15:24.491Z,3.35
2023-04-14T08:16:24.510Z,3.47
2023-04-14T08:17:24.500Z,3.08
2023-04-14T08:18:24.447Z,3.23
2023-04-14T08:19:24.461Z,3.03
2023-04-14T08:20:24.478Z,2.73
2023-04-14T08:21:24.609Z,3.50
2023-04-14T08:22:24.443Z,2.81
2023-04-14T08:23:24.445Z,3.46
2023-04-14T08:24:24.453Z,5.03
2023-04-14T08:25:24.393Z,3.17
2023-04-14T08:26:24.381Z,2.97
2023-04-14T08:27:24.425Z,2.94
2023-04-14T08:28:24.411Z,2.82
2023-04-14T08:30:43.660Z,2.69
2023-04-14T08:31:43.702Z,3.20
2023-04-14T08:32:43.829Z,2.92
2023-04-14T08:33:43.790Z,2.74
2023-04-14T08:35:39.714Z,3.55
2023-04-14T08:35:44.815Z,2.48
2023-04-14T08:36:43.879Z,2.92
2023-04-14T08:37:43.716Z,2.89
2023-04-14T08:38:43.735Z,3.71
2023-04-14T08:39:43.757Z,3.33
2023-04-14T08:40:43.737Z,3.50
2023-04-14T08:41:43.851Z,3.27
2023-04-14T08:42:43.725Z,3.61
2023-04-14T08:43:43.729Z,3.61
2023-04-14T08:44:43.697Z,3.25
2023-04-14T08:45:43.776Z,3.44
2023-04-14T08:46:43.726Z,2.62
2023-04-14T08:47:43.741Z,4.34
2023-04-14T08:48:43.704Z,3.43
2023-04-14T08:49:43.661Z,3.07
2023-04-14T08:50:43.730Z,3.82
2023-04-14T08:51:43.700Z,3.40
2023-04-14T08:52:43.698Z,7.66
2023-04-14T08:53:43.645Z,6.98
2023-04-14T08:54:43.633Z,6.26
2023-04-14T08:55:43.713Z,6.19
2023-04-14T08:56:43.884Z,6.18
2023-04-14T08:57:43.619Z,5.55
2023-04-14T08:58:43.636Z,5.22
2023-04-14T08:59:43.638Z,4.96
2023-04-14T09:00:43.724Z,4.79
2023-04-14T09:01:43.729Z,4.95
2023-04-14T09:02:43.741Z,9.77
2023-04-14T09:03:43.894Z,4.41
2023-04-14T09:04:43.840Z,4.47
2023-04-14T09:05:43.940Z,4.40
2023-04-14T09:06:43.839Z,3.58
2023-04-14T09:07:43.832Z,4.14
2023-04-14T09:08:43.828Z,4.22
2023-04-14T09:09:43.836Z,4.02
2023-04-14T09:10:43.877Z,4.90
2023-04-14T09:11:44.370Z,4.41
2023-04-14T09:12:43.856Z,4.34
2023-04-14T09:13:43.877Z,4.24
2023-04-14T09:14:43.877Z,4.07
2023-04-14T09:15:43.887Z,4.52
2023-04-14T09:16:43.966Z,3.91
2023-04-14T09:17:43.996Z,3.22
2023-04-14T09:18:43.978Z,3.90
2023-04-14T09:20:34.644Z,3.95
2023-04-14T09:20:45.088Z,3.14
2023-04-14T09:21:53.382Z,4.26
2023-04-14T09:22:44.898Z,4.65
2023-04-14T09:23:43.913Z,4.26
2023-04-14T09:24:43.880Z,5.89
2023-04-14T09:25:43.875Z,4.41
2023-04-14T09:26:44.391Z,3.79
2023-04-14T09:27:43.897Z,3.67
2023-04-14T09:28:43.858Z,4.46
2023-04-14T09:29:43.866Z,4.03
2023-04-14T09:30:43.964Z,3.08
2023-04-14T09:31:43.967Z,3.80
2023-04-14T09:32:44.030Z,4.67
2023-04-14T09:33:44.105Z,3.83
2023-04-14T09:34:44.112Z,3.70
2023-04-14T09:35:44.164Z,3.87
2023-04-14T09:36:44.246Z,4.08
2023-04-14T09:37:44.255Z,3.57
2023-04-14T09:38:44.332Z,3.91
2023-04-14T09:39:44.381Z,3.31
2023-04-14T09:40:44.428Z,4.56
2023-04-14T09:41:44.888Z,4.85
2023-04-14T09:42:44.521Z,4.18
2023-04-14T09:43:44.601Z,4.53
2023-04-14T09:44:44.646Z,3.64
2023-04-14T09:45:44.834Z,4.20
2023-04-14T09:46:44.847Z,4.36
2023-04-14T09:47:44.898Z,4.24
2023-04-14T09:48:44.892Z,4.68
2023-04-14T09:49:45.003Z,3.89
2023-04-14T09:50:45.014Z,5.25
2023-04-14T09:51:45.072Z,5.18
2023-04-14T09:52:45.265Z,4.81
2023-04-14T09:53:48.076Z,4.55
2023-04-14T09:54:45.213Z,4.19
2023-04-14T09:55:45.219Z,4.58
2023-04-14T09:56:45.229Z,4.49
2023-04-14T09:57:45.199Z,4.69
2023-04-14T09:58:45.392Z,4.29
2023-04-14T09:59:45.265Z,5.19
2023-04-14T10:00:45.282Z,3.92
2023-04-14T10:01:45.297Z,4.41
2023-04-14T10:02:45.390Z,5.38
2023-04-14T10:03:45.267Z,5.52
2023-04-14T10:04:46.382Z,5.02
2023-04-14T10:05:45.114Z,3.76
2023-04-14T10:06:45.102Z,4.71
2023-04-14T10:07:45.115Z,4.07
2023-04-14T10:08:45.093Z,4.19
2023-04-14T10:09:45.088Z,4.07
2023-04-14T10:10:45.129Z,3.86
2023-04-14T10:11:45.068Z,3.67
2023-04-14T10:12:45.109Z,3.44
2023-04-14T10:13:45.047Z,3.22
2023-04-14T10:14:45.053Z,3.86
2023-04-14T10:15:45.033Z,4.04
2023-04-14T10:16:45.064Z,4.57
2023-04-14T10:17:45.095Z,3.52
2023-04-14T10:18:45.006Z,3.72
2023-04-14T10:19:45.103Z,4.03
2023-04-14T10:20:45.045Z,4.74
2023-04-14T10:21:45.023Z,3.96
2023-04-14T10:22:45.043Z,3.43
2023-04-14T10:23:44.974Z,3.09
2023-04-14T10:24:44.976Z,3.66
2023-04-14T10:25:44.969Z,3.47
2023-04-14T10:26:44.987Z,3.37
2023-04-14T10:27:44.969Z,3.49
2023-04-14T10:28:44.974Z,3.32
2023-04-14T10:29:44.972Z,3.12
2023-04-14T10:30:44.961Z,3.26
2023-04-14T10:31:44.995Z,3.58
2023-04-14T10:32:45.041Z,3.01
2023-04-14T10:33:44.907Z,3.70
2023-04-14T10:34:44.928Z,3.43
2023-04-14T10:35:44.925Z,4.59
2023-04-14T10:36:44.957Z,4.42
2023-04-14T10:37:45.549Z,4.27
2023-04-14T10:38:44.904Z,4.48
2023-04-14T10:39:44.930Z,3.94
2023-04-14T10:40:44.886Z,5.01
2023-04-14T10:41:44.857Z,4.16
2023-04-14T10:42:45.038Z,4.38
2023-04-14T10:43:44.843Z,3.69
2023-04-14T10:44:44.893Z,3.70
2023-04-14T10:45:44.821Z,4.65
2023-04-14T10:46:44.902Z,4.34
2023-04-14T10:47:44.857Z,4.45
2023-04-14T10:48:44.815Z,4.10
2023-04-14T10:49:44.820Z,4.17
2023-04-14T10:50:44.795Z,3.46
2023-04-14T10:51:44.823Z,3.91
2023-04-14T10:52:44.882Z,3.42
2023-04-14T10:53:44.814Z,3.58
2023-04-14T10:54:44.808Z,3.41
2023-04-14T10:55:51.771Z,3.50
2023-04-14T10:56:45.812Z,4.26
2023-04-14T10:57:44.840Z,3.85
2023-04-14T10:58:44.860Z,3.05
2023-04-14T10:59:44.791Z,3.05
2023-04-14T11:00:44.925Z,3.60
2023-04-14T11:01:44.861Z,3.37
2023-04-14T11:02:44.901Z,3.63
2023-04-14T11:03:45.092Z,3.34
2023-04-14T11:04:44.768Z,2.91
2023-04-14T11:05:44.771Z,3.00
2023-04-14T11:06:44.738Z,3.12
2023-04-14T11:07:44.771Z,2.89
2023-04-14T11:08:44.748Z,3.02
2023-04-14T11:09:44.724Z,2.63
2023-04-14T11:10:44.769Z,3.04
2023-04-14T11:11:44.750Z,3.10
2023-04-14T11:12:44.742Z,2.51
2023-04-14T11:13:44.741Z,2.94
2023-04-14T11:14:44.732Z,2.72
2023-04-14T11:15:44.781Z,2.49
2023-04-14T11:16:54.082Z,2.33
2023-04-14T11:17:45.914Z,2.63
2023-04-14T11:18:45.757Z,2.49
2023-04-14T11:19:44.822Z,2.55
2023-04-14T11:20:44.849Z,2.27
2023-04-14T11:21:44.777Z,2.52
2023-04-14T11:22:44.809Z,2.20
2023-04-14T11:23:44.801Z,3.40
2023-04-14T11:24:44.782Z,2.55
2023-04-14T11:25:44.786Z,2.22
2023-04-14T11:26:44.784Z,2.08
2023-04-14T11:27:44.778Z,3.07
2023-04-14T11:28:44.824Z,2.58
2023-04-14T11:29:44.750Z,2.37
2023-04-14T11:30:44.756Z,2.57
2023-04-14T11:31:44.764Z,2.05
2023-04-14T11:32:45.079Z,2.34
2023-04-14T11:33:44.793Z,2.45
2023-04-14T11:34:44.704Z,2.83
2023-04-14T11:35:44.701Z,2.31
2023-04-14T11:36:44.751Z,2.49
2023-04-14T11:37:44.956Z,2.59
2023-04-14T11:38:44.754Z,2.97
2023-04-14T11:39:44.734Z,2.40
2023-04-14T11:40:44.747Z,2.46
2023-04-14T11:41:44.800Z,2.91
2023-04-14T11:42:44.944Z,2.71
2023-04-14T11:43:44.732Z,2.17
2023-04-14T11:44:44.747Z,2.97
2023-04-14T11:45:44.773Z,3.04
2023-04-14T11:46:44.706Z,3.03
2023-04-14T11:47:44.821Z,2.69
2023-04-14T11:48:44.769Z,3.33
2023-04-14T11:49:44.718Z,3.13
2023-04-14T11:50:44.704Z,2.42
2023-04-14T11:51:44.745Z,2.78
2023-04-14T11:52:44.710Z,2.87
2023-04-14T11:53:44.726Z,2.71
2023-04-14T11:54:44.781Z,2.84
2023-04-14T11:55:44.712Z,2.52
2023-04-14T11:56:44.710Z,3.13
2023-04-14T11:57:44.815Z,2.90
2023-04-14T11:58:44.743Z,2.57
2023-04-14T11:59:44.746Z,2.44
2023-04-14T12:00:44.790Z,2.71
2023-04-14T12:01:44.822Z,2.56
2023-04-14T12:02:44.924Z,2.38
2023-04-14T12:03:45.001Z,2.93
2023-04-14T12:04:45.016Z,2.55
2023-04-14T12:05:45.048Z,2.23
2023-04-14T12:06:44.912Z,2.39
2023-04-14T12:07:44.963Z,2.24
2023-04-14T12:08:44.997Z,2.76
2023-04-14T12:09:45.006Z,2.79
2023-04-14T12:10:45.049Z,2.82
2023-04-14T12:11:45.048Z,2.98
2023-04-14T12:12:45.093Z,3.24
2023-04-14T12:13:45.168Z,3.22
2023-04-14T12:14:45.192Z,2.88
2023-04-14T12:15:45.326Z,3.40
2023-04-14T12:16:45.287Z,3.48
2023-04-14T12:17:45.430Z,2.83
2023-04-14T12:18:45.418Z,3.44
2023-04-14T12:19:45.441Z,3.39
2023-04-14T12:20:45.495Z,2.88
2023-04-14T12:21:45.548Z,2.41
2023-04-14T12:22:45.606Z,2.88
2023-04-14T12:23:45.637Z,2.74
2023-04-14T12:24:45.687Z,2.83
2023-04-14T12:25:45.692Z,3.01
2023-04-14T12:26:45.778Z,2.87
2023-04-14T12:27:45.797Z,2.74
2023-04-14T12:28:45.867Z,3.20
2023-04-14T12:29:46.050Z,2.79
2023-04-14T12:30:45.982Z,2.56
2023-04-14T12:31:46.122Z,2.97
2023-04-14T12:32:46.170Z,2.93
2023-04-14T12:33:46.178Z,2.63
2023-04-14T12:34:46.194Z,3.14
2023-04-14T12:35:46.223Z,2.80
2023-04-14T12:36:50.468Z,2.38
2023-04-14T12:37:46.309Z,2.62
2023-04-14T12:38:46.290Z,1.77
2023-04-14T12:39:46.274Z,2.48
2023-04-14T12:40:46.286Z,2.37
2023-04-14T12:41:46.272Z,2.52
2023-04-14T12:42:46.295Z,2.41
2023-04-14T12:43:46.276Z,2.62
2023-04-14T12:44:46.235Z,2.74
2023-04-14T12:45:46.273Z,2.43
2023-04-14T12:46:46.274Z,2.53
2023-04-14T12:47:46.283Z,3.06
2023-04-14T12:48:46.236Z,2.48
2023-04-14T12:49:46.276Z,3.07
2023-04-14T12:50:46.288Z,2.53
2023-04-14T12:51:46.232Z,1.95
2023-04-14T12:52:46.345Z,2.54
2023-04-14T12:53:46.305Z,2.36
2023-04-14T12:54:46.333Z,2.18
2023-04-14T12:55:46.391Z,2.81
2023-04-14T12:56:46.434Z,2.82
2023-04-14T12:57:46.442Z,2.59
2023-04-14T12:58:46.542Z,2.49
2023-04-14T12:59:46.496Z,2.63
2023-04-14T13:00:46.615Z,2.83
2023-04-14T13:01:46.608Z,3.02
2023-04-14T13:02:47.118Z,2.45
2023-04-14T13:03:46.914Z,2.28
2023-04-14T13:04:46.698Z,2.26
2023-04-14T13:05:46.722Z,3.12
2023-04-14T13:06:46.774Z,2.49
2023-04-14T13:07:46.825Z,2.60
2023-04-14T13:08:46.864Z,2.10
2023-04-14T13:09:46.941Z,2.65
2023-04-14T13:10:46.974Z,2.44
2023-04-14T13:11:47.049Z,3.03
2023-04-14T13:12:47.121Z,2.86
2023-04-14T13:13:47.189Z,2.39
2023-04-14T13:14:47.203Z,2.22
2023-04-14T13:16:13.807Z,2.33
2023-04-14T13:16:48.325Z,2.62
2023-04-14T13:17:47.262Z,2.36
2023-04-14T13:18:47.344Z,2.56
2023-04-14T13:19:47.242Z,2.18